TimeEDT,TemperatureF,Dew PointF,Humidity,Sea Level PressureIn,VisibilityMPH,Wind Direction,Wind SpeedMPH,Gust SpeedMPH,PrecipitationIn,Events,Conditions,WindDirDegrees,DateUTC
12:14 AM,66.6,65.7,97,29.86,7.0,Calm,Calm,-,N/A,,Scattered Clouds,0,2013-08-07 04:14:00
12:33 AM,66.6,65.5,96,29.86,7.0,Calm,Calm,-,N/A,,Scattered Clouds,0,2013-08-07 04:33:00
12:54 AM,67.6,66.2,95,29.85,7.0,South,3.5,-,N/A,,Scattered Clouds,190,2013-08-07 04:54:00
1:14 AM,68.4,66.9,95,29.85,7.0,South,3.5,-,N/A,,Scattered Clouds,180,2013-08-07 05:14:00
1:34 AM,68.2,66.7,95,29.85,7.0,South,4.6,-,N/A,,Clear,180,2013-08-07 05:34:00
1:54 AM,67.6,66.6,96,29.85,7.0,South,3.5,-,N/A,,Clear,180,2013-08-07 05:54:00
2:14 AM,67.5,66.4,96,29.84,7.0,South,3.5,-,N/A,,Clear,180,2013-08-07 06:14:00
2:34 AM,67.6,66.6,96,29.84,7.0,South,3.5,-,N/A,,Clear,190,2013-08-07 06:34:00
2:54 AM,67.8,66.7,96,29.84,7.0,South,4.6,-,N/A,,Clear,180,2013-08-07 06:54:00
3:14 AM,67.5,66.4,96,29.83,7.0,SSW,3.5,-,N/A,,Clear,200,2013-08-07 07:14:00
3:34 AM,67.6,66.7,97,29.82,7.0,SSW,3.5,-,N/A,,Clear,200,2013-08-07 07:34:00
3:54 AM,67.5,66.6,97,29.82,7.0,South,3.5,-,N/A,,Clear,190,2013-08-07 07:54:00
4:14 AM,68.0,67.3,98,29.79,7.0,SSE,4.6,-,N/A,,Scattered Clouds,160,2013-08-07 08:14:00
4:34 AM,68.5,67.5,96,29.79,5.0,WSW,6.9,-,0.01,Rain,Rain,240,2013-08-07 08:34:00
4:54 AM,68.9,67.8,96,29.82,7.0,WSW,16.1,-,0.05,Rain,Rain,240,2013-08-07 08:54:00
5:14 AM,65.3,62.2,90,29.90,2.5,WNW,9.2,19.6,0.23,Rain,Heavy Rain,290,2013-08-07 09:14:00
5:34 AM,64.8,63.5,96,29.86,3.0,Calm,Calm,-,0.40,Rain,Rain,0,2013-08-07 09:34:00
5:54 AM,64.4,63.5,97,29.85,10.0,Calm,Calm,-,0.40,,Light Drizzle,0,2013-08-07 09:54:00
6:14 AM,64.0,63.3,97,29.84,10.0,Calm,Calm,-,0.01,Rain,Rain,0,2013-08-07 10:14:00
6:34 AM,64.4,63.0,95,29.79,10.0,SSE,6.9,-,0.03,Rain,Light Rain,160,2013-08-07 10:34:00
6:54 AM,64.0,62.6,95,29.78,10.0,SSE,3.5,-,0.03,,Overcast,160,2013-08-07 10:54:00
7:14 AM,64.4,62.6,94,29.79,10.0,SSW,3.5,-,N/A,Rain,Light Rain,200,2013-08-07 11:14:00
7:34 AM,63.9,62.6,96,29.80,10.0,South,6.9,-,N/A,,Light Drizzle,190,2013-08-07 11:34:00
7:54 AM,64.0,62.6,95,29.77,10.0,South,6.9,-,N/A,,Scattered Clouds,180,2013-08-07 11:54:00
8:14 AM,64.8,62.8,93,29.78,10.0,Calm,Calm,-,N/A,,Clear,0,2013-08-07 12:14:00
8:34 AM,64.9,62.6,92,29.78,10.0,South,5.8,-,N/A,,Scattered Clouds,190,2013-08-07 12:34:00
8:48 AM,64.8,62.8,93,29.79,10.0,South,6.9,-,N/A,,Scattered Clouds,190,2013-08-07 12:48:00
9:14 AM,65.3,63.1,93,29.80,10.0,SSW,5.8,-,N/A,,Clear,210,2013-08-07 13:14:00
9:34 AM,66.6,63.9,91,29.80,10.0,Calm,Calm,-,N/A,,Scattered Clouds,0,2013-08-07 13:34:00
9:54 AM,68.2,63.9,86,29.80,10.0,West,3.5,-,N/A,,Mostly Cloudy,260,2013-08-07 13:54:00
10:14 AM,69.6,64.8,84,29.81,10.0,SW,5.8,-,N/A,,Mostly Cloudy,220,2013-08-07 14:14:00
10:34 AM,70.0,64.6,83,29.81,10.0,WSW,5.8,-,N/A,,Mostly Cloudy,240,2013-08-07 14:34:00
10:54 AM,71.6,64.6,78,29.82,10.0,SW,5.8,-,N/A,,Scattered Clouds,220,2013-08-07 14:54:00
11:14 AM,73.6,66.2,78,29.82,10.0,SSW,9.2,-,N/A,,Clear,210,2013-08-07 15:14:00
11:34 AM,74.7,65.5,73,29.82,10.0,SSW,9.2,-,N/A,,Clear,210,2013-08-07 15:34:00
11:54 AM,75.2,65.3,71,29.82,7.0,SW,8.1,16.1,N/A,,Scattered Clouds,220,2013-08-07 15:54:00
12:14 PM,74.7,65.5,73,29.83,10.0,SW,10.4,-,N/A,,Mostly Cloudy,220,2013-08-07 16:14:00
12:35 PM,77.2,66.6,70,29.82,10.0,West,12.7,17.3,N/A,,Overcast,260,2013-08-07 16:35:00
12:54 PM,78.4,66.6,67,29.82,10.0,WSW,9.2,16.1,N/A,,Mostly Cloudy,250,2013-08-07 16:54:00
1:14 PM,79.9,66.7,64,29.82,10.0,West,10.4,16.1,N/A,,Scattered Clouds,260,2013-08-07 17:14:00
1:35 PM,81.1,66.0,60,29.82,10.0,West,12.7,-,N/A,,Scattered Clouds,260,2013-08-07 17:35:00
1:54 PM,81.1,65.5,59,29.81,10.0,West,11.5,16.1,N/A,,Clear,260,2013-08-07 17:54:00
2:14 PM,81.7,66.6,60,29.81,10.0,West,9.2,16.1,N/A,,Clear,270,2013-08-07 18:14:00
2:34 PM,81.7,67.1,61,29.81,7.0,SW,9.2,-,N/A,,Scattered Clouds,220,2013-08-07 18:34:00
2:54 PM,82.4,67.1,60,29.81,10.0,SW,11.5,-,N/A,,Mostly Cloudy,220,2013-08-07 18:54:00
3:14 PM,81.9,67.1,61,29.81,10.0,SW,11.5,16.1,N/A,,Scattered Clouds,230,2013-08-07 19:14:00
3:34 PM,82.6,67.1,59,29.82,7.0,WSW,9.2,16.1,N/A,,Scattered Clouds,240,2013-08-07 19:34:00
3:54 PM,83.3,66.7,57,29.82,10.0,WSW,11.5,16.1,N/A,,Scattered Clouds,240,2013-08-07 19:54:00
4:14 PM,81.3,66.7,61,29.82,10.0,WSW,6.9,-,N/A,,Scattered Clouds,250,2013-08-07 20:14:00
4:34 PM,81.5,66.2,60,29.81,10.0,WSW,8.1,-,N/A,,Scattered Clouds,250,2013-08-07 20:34:00
4:54 PM,83.3,65.8,55,29.81,10.0,West,8.1,-,N/A,,Scattered Clouds,270,2013-08-07 20:54:00
5:15 PM,83.5,64.9,53,29.81,10.0,West,6.9,-,N/A,,Clear,260,2013-08-07 21:15:00
5:34 PM,83.5,64.0,52,29.82,10.0,West,6.9,-,N/A,,Scattered Clouds,270,2013-08-07 21:34:00
5:54 PM,83.7,63.7,51,29.82,10.0,WSW,8.1,-,N/A,,Scattered Clouds,250,2013-08-07 21:54:00
6:15 PM,83.3,63.3,51,29.82,10.0,WNW,6.9,-,N/A,,Clear,290,2013-08-07 22:15:00
6:34 PM,82.8,64.4,54,29.82,7.0,WNW,6.9,-,N/A,,Clear,290,2013-08-07 22:34:00
6:54 PM,82.0,65.1,56,29.82,10.0,West,8.1,-,N/A,,Clear,280,2013-08-07 22:54:00
7:15 PM,81.1,65.1,58,29.83,10.0,West,6.9,-,N/A,,Scattered Clouds,280,2013-08-07 23:15:00
7:34 PM,79.7,65.1,61,29.83,10.0,NW,4.6,-,N/A,,Mostly Cloudy,310,2013-08-07 23:34:00
7:54 PM,77.7,65.5,66,29.84,10.0,NW,4.6,-,N/A,,Scattered Clouds,310,2013-08-07 23:54:00
8:15 PM,77.4,64.6,65,29.84,10.0,NW,4.6,-,N/A,,Clear,310,2013-08-08 00:15:00
8:34 PM,75.9,64.0,67,29.84,10.0,WNW,3.5,-,N/A,,Clear,300,2013-08-08 00:34:00
8:54 PM,73.6,63.7,71,29.85,10.0,NW,4.6,-,N/A,,Clear,310,2013-08-08 00:54:00
9:14 PM,71.6,63.5,76,29.86,10.0,NW,3.5,-,N/A,,Clear,320,2013-08-08 01:14:00
9:34 PM,70.5,63.9,79,29.87,10.0,Calm,Calm,-,N/A,,Clear,0,2013-08-08 01:34:00
9:55 PM,70.2,62.8,77,29.88,10.0,NNW,5.8,-,N/A,,Clear,330,2013-08-08 01:55:00
10:14 PM,69.8,62.6,78,29.89,10.0,NNW,5.8,-,N/A,,Clear,330,2013-08-08 02:14:00
10:34 PM,68.5,62.1,80,29.91,10.0,NNW,4.6,-,N/A,,Clear,330,2013-08-08 02:34:00
10:54 PM,67.3,62.1,83,29.92,10.0,NNW,3.5,-,N/A,,Clear,340,2013-08-08 02:54:00
11:14 PM,67.3,61.7,82,29.93,10.0,NNW,3.5,-,N/A,,Clear,330,2013-08-08 03:14:00
11:35 PM,66.6,61.5,84,29.94,10.0,NNW,4.6,-,N/A,,Clear,330,2013-08-08 03:35:00
11:54 PM,65.5,61.3,86,29.95,10.0,Calm,Calm,-,N/A,,Clear,0,2013-08-08 03:54:00